Airfield :
LOGIN :

Register | Disclaimer

   EN    FR    IT 

 










Legend :    VFR   Marginal VFR   IFR   Intensive IFR   Very Intensive IFR
Visi :
Ceiling :
>= 8 km
>= 3000ft
5 to 8 km
1000 to 3000 ft
1500m to 5 km
500 to 1000 ft
800 to 1500m
200 to 500 ft
< 800m
< 200 ft
Symbols :   Thunderstorms  Fog  Heavy snow  Heavy precipitations  Wind > 20 kt
SIGMETs :     Misc.  Thunderstorms  Icing  Turbulence  Mountain Waves  Volcanic Ashes






- Airport Elevation : 616 ft
- IATA code : PUF


LFBP - Pau

CURRENT METAR :
  • 041130Z AUTO 23006KT 200V280 9999 OVC028 21/16 Q1022 BECMG FEW010 BKN020 FEW070CB

EXPIRED METARs :
  • 041100Z AUTO 25005KT 220V280 9999 BKN025 BKN039 21/16 Q1022 BECMG FEW010 BKN020 FEW070CB
  • 041030Z AUTO 25006KT 200V300 9999 BKN023 BKN028 BKN036 21/16 Q1022 BECMG FEW010 BKN020 FEW070CB
  • 041000Z AUTO 25005KT 9999 BKN021 OVC029 20/15 Q1022 BECMG FEW010 BKN020 FEW070CB
  • 040930Z AUTO 26005KT 230V330 9999 SCT022 OVC032 20/16 Q1022 BECMG FEW010 BKN020 FEW070CB
  • 040900Z AUTO 24005KT 200V280 9999 SCT020 BKN025 OVC032 20/15 Q1022 BECMG FEW010 BKN020 FEW070CB

TAF AMD TAF LFBP
Valid from the 04 at 06:00 until the 05 at 06:00 UTC


040631Z 0406/0506 26005KT 9999 FEW010 BKN020 FEW070CB
PROB40
TEMPO 0406/0408 TSRA BKN060CB
FM041400 30010KT 9999 BKN030
BECMG 0420/0422 23004KT BKN015



MET'MAP, your aeronautical weather chart ! - Copyright ORBIFLY December 2007 - Disclaimer

ORBIFLY MET'MAP TEAM :

Programming & Development : Alexandra Zaïnal
Original concept : Baudouin d'Aumeries
Technical & hardware support : Manuel Goepfert
Assistance : Marc-Olivier Méhu




SOURCES & CREDITS :

   NOAA